Hilo, Hawaii
Current Conditions -  °F | °C
As of 5:53 AM on Thursday 23 Oct 2014 (Local Time) from PHTO Reporting Station
Overcast Overcast  
Wind Chill: 72°   Ceiling: 2500
Heat Index: 72°   Visibility: 10mi
Dew Point: 70°   Wind: 3mph
Humidity: 93%   Direction: 210°SSW
Pressure: 30.02"   Gusts: NA
Location:  19.72°N, 155.08°W
Report Text: PHTO 231553Z 21003KT 10SM BKN025 OVC032 22/21 A3002 RMK AO2 RAE27 SLP163 P0001 T02220211
Loading
Personal Weather Stations






























Interactive Weather Map New forecast layout! Learn more

10-Day Weather Forecast

Advertisements
Track Severe Weather on mobile